Time;durP1;ratioP1;P1;durP2;ratioP2;P2;SDS_P1;SDS_P2;PMS_P1;PMS_P2;Temp;Humidity;BMP_temperature;BMP_pressure;BME280_temperature;BME280_humidity;BME280_pressure;Samples;Min_cycle;Max_cycle;Signal;HPM_P1;HPM_P2
2021/05/17 00:01:04;;;;;;;2.20;1.67;;;11.50;99.90;;;;;;5109689;28;20446;-54
2021/05/17 00:03:31;;;;;;;1.63;1.53;;;11.50;99.90;;;;;;5110811;28;20653;-54
2021/05/17 00:05:57;;;;;;;1.70;1.60;;;11.50;99.90;;;;;;5110946;28;20458;-54
2021/05/17 00:08:22;;;;;;;1.93;1.67;;;11.40;99.90;;;;;;5107053;28;20434;-53
2021/05/17 00:10:48;;;;;;;2.90;2.00;;;11.50;99.90;;;;;;5108617;27;20449;-53
2021/05/17 00:13:14;;;;;;;1.97;1.77;;;11.50;99.90;;;;;;5108673;28;20224;-53
2021/05/17 00:15:40;;;;;;;2.13;1.93;;;11.70;99.90;;;;;;5110464;28;20531;-54
2021/05/17 00:18:07;;;;;;;1.77;1.67;;;11.50;99.90;;;;;;5112346;28;20549;-54
2021/05/17 00:20:33;;;;;;;2.13;1.93;;;11.10;99.90;;;;;;5111528;28;20443;-52
2021/05/17 00:22:59;;;;;;;3.07;1.87;;;11.60;99.90;;;;;;5110432;27;20546;-53
2021/05/17 00:25:27;;;;;;;2.80;2.00;;;11.50;99.90;;;;;;5109224;28;20969;-54
2021/05/17 00:27:54;;;;;;;2.13;1.80;;;11.40;99.90;;;;;;5108886;28;20503;-54
2021/05/17 00:30:25;;;;;;;2.60;1.97;;;11.50;99.90;;;;;;5110717;28;20463;-53
2021/05/17 00:32:52;;;;;;;1.90;1.70;;;11.50;99.90;;;;;;5104625;28;20506;-53
2021/05/17 00:35:18;;;;;;;1.83;1.33;;;11.50;99.90;;;;;;5111484;28;20481;-53
2021/05/17 00:37:44;;;;;;;2.27;2.00;;;11.50;99.90;;;;;;5110671;28;20494;-56
2021/05/17 00:40:13;;;;;;;2.10;1.90;;;11.40;99.90;;;;;;5112217;28;20474;-54
2021/05/17 00:42:39;;;;;;;2.10;1.90;;;11.40;99.90;;;;;;5111645;28;20809;-54
2021/05/17 00:45:08;;;;;;;3.37;1.83;;;11.40;99.90;;;;;;5110478;28;20450;-54
2021/05/17 00:47:38;;;;;;;2.60;1.70;;;11.40;99.90;;;;;;5109337;28;20505;-54
2021/05/17 00:50:05;;;;;;;2.43;1.47;;;11.40;99.90;;;;;;5112144;28;20777;-53
2021/05/17 00:52:32;;;;;;;1.97;1.60;;;11.50;99.90;;;;;;5111628;28;20438;-55
2021/05/17 00:54:58;;;;;;;3.50;1.53;;;11.40;99.90;;;;;;5112118;28;20561;-54
2021/05/17 00:57:24;;;;;;;2.00;1.40;;;11.50;99.90;;;;;;5111220;28;20504;-53
2021/05/17 00:59:49;;;;;;;2.90;2.70;;;11.60;99.90;;;;;;5108076;28;20234;-54
2021/05/17 01:02:15;;;;;;;1.60;1.50;;;11.70;99.90;;;;;;5108933;28;20448;-54
2021/05/17 01:04:41;;;;;;;2.23;2.03;;;11.60;99.90;;;;;;5109328;28;20226;-54
2021/05/17 01:07:07;;;;;;;2.10;1.90;;;11.50;99.90;;;;;;5111454;28;20235;-54
2021/05/17 01:09:34;;;;;;;3.10;2.13;;;11.50;99.90;;;;;;5111505;28;20189;-54
2021/05/17 01:12:00;;;;;;;2.10;1.87;;;11.40;99.90;;;;;;5111811;28;20871;-54
2021/05/17 01:14:26;;;;;;;2.17;1.60;;;11.40;99.90;;;;;;5109075;28;20442;-54
2021/05/17 01:16:53;;;;;;;2.33;1.87;;;11.50;99.90;;;;;;5107428;28;20223;-53
2021/05/17 01:19:40;;;;;;;1.87;1.77;;;11.50;99.90;;;;;;5106210;28;20442;-53
2021/05/17 01:22:22;;;;;;;3.20;1.83;;;11.40;99.90;;;;;;5109982;28;20486;-54
2021/05/17 01:24:48;;;;;;;2.50;2.30;;;11.40;99.90;;;;;;5092320;28;20439;-54
2021/05/17 01:27:13;;;;;;;2.60;2.13;;;11.40;99.90;;;;;;5110849;28;20467;-54
2021/05/17 01:29:40;;;;;;;3.60;1.90;;;11.50;99.90;;;;;;5110583;28;20449;-53
2021/05/17 01:32:08;;;;;;;1.73;1.50;;;11.50;99.90;;;;;;5109761;28;20246;-52
2021/05/17 01:34:37;;;;;;;3.40;1.70;;;11.60;99.90;;;;;;5110995;28;20517;-54
2021/05/17 01:37:03;;;;;;;2.03;1.30;;;11.60;99.90;;;;;;5092393;28;20445;-54
2021/05/17 01:39:29;;;;;;;2.00;1.57;;;11.60;99.90;;;;;;5110821;28;20529;-54
2021/05/17 01:41:55;;;;;;;3.47;1.50;;;11.70;99.90;;;;;;5094478;28;20862;-55
2021/05/17 01:44:24;;;;;;;1.50;1.40;;;11.70;99.90;;;;;;5111030;28;20538;-54
2021/05/17 01:46:51;;;;;;;1.40;1.30;;;11.70;99.90;;;;;;5108265;28;20277;-54
2021/05/17 01:49:18;;;;;;;2.27;1.87;;;11.70;99.90;;;;;;5111197;28;20593;-54
2021/05/17 01:51:45;;;;;;;4.67;1.30;;;11.80;99.90;;;;;;5109174;28;20562;-55
2021/05/17 01:54:11;;;;;;;2.27;1.70;;;11.80;99.90;;;;;;5109367;28;20454;-54
2021/05/17 01:56:38;;;;;;;1.53;1.43;;;11.80;99.90;;;;;;5092612;28;20454;-53
2021/05/17 01:59:03;;;;;;;4.10;1.53;;;11.80;99.90;;;;;;5091534;28;20444;-53
2021/05/17 02:01:29;;;;;;;2.83;1.70;;;11.90;99.90;;;;;;5104317;28;20438;-53
2021/05/17 02:03:55;;;;;;;1.93;1.63;;;11.90;99.90;;;;;;5108960;28;20182;-53
2021/05/17 02:06:21;;;;;;;4.20;1.97;;;12.00;99.90;;;;;;5089305;28;20193;-54
2021/05/17 02:08:51;;;;;;;2.80;1.57;;;12.20;99.90;;;;;;5106567;28;20182;-53
2021/05/17 02:11:22;;;;;;;4.97;1.57;;;12.10;99.90;;;;;;5106258;27;20464;-55
2021/05/17 02:13:49;;;;;;;1.40;1.30;;;12.20;99.90;;;;;;5109768;28;20784;-53
2021/05/17 02:16:16;;;;;;;1.80;1.70;;;12.10;99.90;;;;;;5108858;28;20451;-55
2021/05/17 02:18:44;;;;;;;1.47;1.37;;;12.20;99.90;;;;;;5107949;28;20455;-54
2021/05/17 02:21:12;;;;;;;1.50;1.40;;;12.20;99.90;;;;;;5107980;28;20837;-54
2021/05/17 02:23:38;;;;;;;1.77;1.60;;;12.20;99.90;;;;;;5109036;28;20442;-53
2021/05/17 02:26:05;;;;;;;1.97;1.60;;;12.20;99.90;;;;;;5109690;28;20462;-53
2021/05/17 02:28:31;;;;;;;3.97;1.67;;;12.20;99.90;;;;;;5110182;28;20473;-53
2021/05/17 02:30:57;;;;;;;1.40;1.17;;;12.10;99.90;;;;;;5108680;28;20592;-54
2021/05/17 02:33:22;;;;;;;1.20;1.10;;;12.10;99.90;;;;;;5108291;28;20486;-55
2021/05/17 02:35:48;;;;;;;3.13;1.63;;;12.20;99.90;;;;;;5109990;28;20284;-53
2021/05/17 02:38:14;;;;;;;3.90;1.77;;;12.20;99.90;;;;;;5095310;28;20222;-52
2021/05/17 02:40:41;;;;;;;1.50;1.40;;;12.20;99.90;;;;;;5108474;28;20188;-53
2021/05/17 02:43:08;;;;;;;2.37;1.50;;;12.20;99.90;;;;;;5097771;28;20483;-55
2021/05/17 02:45:35;;;;;;;1.50;1.23;;;12.20;99.90;;;;;;5094188;28;20525;-53
2021/05/17 02:48:03;;;;;;;2.03;1.60;;;12.10;99.90;;;;;;5085613;28;20447;-55
2021/05/17 02:50:38;;;;;;;2.33;1.40;;;12.10;99.90;;;;;;5108085;28;20519;-53
2021/05/17 02:53:35;;;;;;;1.67;1.43;;;12.10;99.90;;;;;;5107714;28;20441;-53
2021/05/17 02:56:14;;;;;;;1.37;1.27;;;12.00;99.90;;;;;;5090299;28;20441;-53
2021/05/17 02:58:41;;;;;;;1.20;1.10;;;12.00;99.90;;;;;;5110048;28;20446;-53
2021/05/17 03:01:14;;;;;;;1.57;1.23;;;12.00;99.90;;;;;;5111812;28;20800;-54
2021/05/17 03:03:50;;;;;;;2.00;1.47;;;12.00;99.90;;;;;;5110912;28;20895;-52
2021/05/17 03:06:20;;;;;;;1.77;1.37;;;11.90;99.90;;;;;;5113249;28;20466;-53
2021/05/17 03:09:07;;;;;;;2.40;1.23;;;11.90;99.90;;;;;;5105554;28;20958;-53
2021/05/17 03:11:39;;;;;;;1.73;1.53;;;11.90;99.90;;;;;;5111054;28;20765;-53
2021/05/17 03:14:07;;;;;;;1.50;1.40;;;11.90;99.90;;;;;;5102459;28;20947;-53
2021/05/17 03:16:33;;;;;;;1.70;1.60;;;12.00;99.90;;;;;;5113249;28;20437;-53
2021/05/17 03:19:00;;;;;;;5.10;1.90;;;12.00;99.90;;;;;;5113353;28;20461;-53
2021/05/17 03:21:28;;;;;;;1.83;1.73;;;12.10;99.90;;;;;;5112425;28;20448;-53
2021/05/17 03:23:55;;;;;;;3.50;1.47;;;12.10;99.90;;;;;;5112500;28;20956;-53
2021/05/17 03:26:22;;;;;;;1.90;1.50;;;12.10;99.90;;;;;;5111702;28;20466;-53
2021/05/17 03:28:49;;;;;;;2.40;1.97;;;12.00;99.90;;;;;;5111595;28;20961;-54
2021/05/17 03:31:15;;;;;;;1.70;1.60;;;12.10;99.90;;;;;;5106097;28;20463;-53
2021/05/17 03:33:40;;;;;;;2.03;1.93;;;12.10;99.90;;;;;;5112655;28;20469;-53
2021/05/17 03:36:06;;;;;;;3.33;1.50;;;12.00;99.90;;;;;;5113317;28;20672;-54
2021/05/17 03:38:32;;;;;;;2.97;2.17;;;12.10;99.90;;;;;;5111632;28;20226;-53
2021/05/17 03:40:58;;;;;;;1.70;1.60;;;12.20;99.90;;;;;;5111812;28;20635;-53
2021/05/17 03:43:24;;;;;;;2.10;1.70;;;12.10;99.90;;;;;;5113477;28;20431;-53
2021/05/17 03:45:52;;;;;;;1.70;1.60;;;12.10;99.90;;;;;;5107717;28;20772;-55
2021/05/17 03:48:18;;;;;;;2.53;2.10;;;12.10;99.90;;;;;;5112272;28;20439;-53
2021/05/17 03:50:44;;;;;;;3.03;1.90;;;12.10;99.90;;;;;;5108749;28;21045;-55
2021/05/17 03:53:09;;;;;;;2.03;1.70;;;12.20;99.90;;;;;;5112643;28;21017;-54
2021/05/17 03:55:35;;;;;;;3.80;1.73;;;12.30;99.90;;;;;;5111617;28;20441;-53
2021/05/17 03:58:01;;;;;;;2.20;1.60;;;12.20;99.90;;;;;;5103775;28;20240;-54
2021/05/17 04:00:28;;;;;;;5.43;1.97;;;12.30;99.90;;;;;;5093988;28;20646;-55
2021/05/17 04:02:54;;;;;;;1.93;1.80;;;12.40;99.90;;;;;;5108962;28;20233;-55
2021/05/17 04:05:33;;;;;;;4.43;2.10;;;12.50;99.90;;;;;;5112051;28;20433;-54
2021/05/17 04:13:19;;;;;;;5.87;2.53;;;12.80;99.90;;;;;;5107186;28;20459;-54
2021/05/17 04:15:45;;;;;;;3.37;1.90;;;12.70;99.90;;;;;;5112791;28;20439;-54
2021/05/17 04:18:11;;;;;;;3.47;2.33;;;12.70;99.90;;;;;;5106508;28;20768;-55
2021/05/17 04:20:37;;;;;;;2.57;2.33;;;12.70;99.90;;;;;;5092946;28;20441;-56
2021/05/17 04:23:03;;;;;;;1.90;1.80;;;12.70;99.90;;;;;;5112473;28;20511;-55
2021/05/17 04:25:29;;;;;;;3.40;2.20;;;12.80;99.90;;;;;;5112873;28;20515;-54
2021/05/17 04:27:55;;;;;;;1.87;1.77;;;12.80;99.90;;;;;;5096487;28;20533;-54
2021/05/17 04:30:21;;;;;;;2.17;2.00;;;12.80;99.90;;;;;;5112812;28;20575;-54
2021/05/17 04:32:46;;;;;;;2.40;2.00;;;12.80;99.90;;;;;;5105951;28;20227;-55
2021/05/17 04:35:12;;;;;;;2.93;2.10;;;13.00;99.90;;;;;;5112121;28;20232;-55
2021/05/17 04:37:38;;;;;;;3.00;2.37;;;12.90;99.90;;;;;;5107536;28;20622;-54
2021/05/17 04:40:05;;;;;;;3.00;2.23;;;12.80;99.90;;;;;;5111322;28;20472;-55
2021/05/17 04:42:31;;;;;;;7.10;2.10;;;12.80;99.90;;;;;;5112345;28;20685;-54
2021/05/17 04:44:57;;;;;;;5.27;2.27;;;12.90;99.90;;;;;;5111934;28;20432;-53
2021/05/17 04:47:23;;;;;;;3.83;2.40;;;12.90;99.90;;;;;;5111926;28;20459;-55
2021/05/17 04:49:48;;;;;;;2.77;2.30;;;12.90;99.90;;;;;;5111704;28;20807;-55
2021/05/17 04:52:14;;;;;;;2.20;2.10;;;13.00;99.90;;;;;;5112320;27;20196;-55
2021/05/17 04:54:40;;;;;;;4.57;3.30;;;13.00;99.90;;;;;;5111739;28;20178;-54
2021/05/17 04:57:05;;;;;;;3.50;2.20;;;13.10;99.90;;;;;;5111667;28;20186;-64
2021/05/17 04:59:31;;;;;;;2.53;2.27;;;13.00;99.90;;;;;;5111262;28;20272;-55
2021/05/17 05:01:56;;;;;;;5.17;2.63;;;12.90;99.90;;;;;;5094048;28;20201;-55
2021/05/17 05:04:22;;;;;;;5.90;2.60;;;12.90;99.90;;;;;;5096189;28;20224;-55
2021/05/17 05:06:47;;;;;;;19.43;4.17;;;13.00;99.90;;;;;;5113396;27;20561;-55
2021/05/17 05:09:13;;;;;;;5.50;2.93;;;13.00;99.90;;;;;;5103304;27;20497;-54
2021/05/17 05:11:38;;;;;;;4.50;2.93;;;13.00;99.90;;;;;;5112009;28;20179;-55
2021/05/17 05:14:04;;;;;;;4.43;2.60;;;13.00;99.90;;;;;;5111628;28;20181;-53
2021/05/17 05:16:30;;;;;;;5.37;2.77;;;13.10;99.90;;;;;;5111017;28;20189;-55
2021/05/17 05:18:55;;;;;;;6.27;2.80;;;13.20;99.90;;;;;;5111282;28;20186;-54
2021/05/17 05:21:21;;;;;;;4.67;2.93;;;13.20;99.90;;;;;;5111022;28;20539;-54
2021/05/17 05:23:47;;;;;;;4.67;3.00;;;13.40;99.90;;;;;;5110830;27;20638;-55
2021/05/17 05:29:05;;;;;;;3.50;3.20;;;13.70;99.90;;;;;;5110887;28;20206;-54
2021/05/17 05:33:56;;;;;;;3.70;2.63;;;14.10;99.90;;;;;;5111124;28;20414;-53
2021/05/17 05:36:22;;;;;;;3.30;2.60;;;14.20;86.00;;;;;;5110783;28;20528;-54
2021/05/17 05:38:48;;;;;;;3.93;2.77;;;15.00;66.20;;;;;;5110733;28;20235;-54
2021/05/17 05:41:14;;;;;;;3.10;2.53;;;14.60;44.30;;;;;;5110008;28;20212;-55
2021/05/17 05:43:39;;;;;;;6.70;2.60;;;14.70;24.30;;;;;;5110425;28;20451;-54
2021/05/17 05:46:05;;;;;;;3.50;3.20;;;14.90;20.70;;;;;;5110470;28;20208;-54
2021/05/17 05:48:30;;;;;;;3.43;2.70;;;14.30;8.30;;;;;;5109906;28;20696;-54
2021/05/17 05:50:56;;;;;;;4.00;2.77;;;15.30;1.00;;;;;;5110141;28;20643;-55
2021/05/17 05:53:22;;;;;;;2.60;2.30;;;15.30;1.00;;;;;;5101618;27;20179;-54
2021/05/17 05:55:47;;;;;;;6.73;2.90;;;15.30;1.00;;;;;;5103979;27;20381;-55
2021/05/17 05:58:14;;;;;;;4.37;2.30;;;15.40;1.00;;;;;;5110339;28;20645;-55
2021/05/17 06:00:40;;;;;;;3.10;2.30;;;17.00;1.00;;;;;;5109971;28;20182;-54
2021/05/17 06:03:06;;;;;;;0.77;0.73;;;15.70;1.00;;;;;;5110046;28;20828;-54
2021/05/17 06:05:32;;;;;;;3.90;0.90;;;15.80;1.00;;;;;;5110274;28;20439;-56
2021/05/17 06:08:00;;;;;;;1.10;1.00;;;15.60;1.00;;;;;;5109986;28;20197;-54
2021/05/17 06:10:26;;;;;;;0.80;0.70;;;15.50;1.00;;;;;;5107581;27;20542;-58
2021/05/17 06:12:52;;;;;;;1.20;0.67;;;15.40;1.00;;;;;;5110022;28;20531;-57
2021/05/17 06:15:19;;;;;;;0.80;0.67;;;15.50;1.00;;;;;;5104868;28;20260;-57
2021/05/17 06:17:48;;;;;;;0.83;0.60;;;15.50;1.00;;;;;;5110074;28;20453;-55
2021/05/17 06:20:15;;;;;;;0.60;0.60;;;15.40;1.00;;;;;;5106652;28;20440;-55
2021/05/17 06:22:41;;;;;;;0.50;0.50;;;15.30;1.00;;;;;;5110183;28;20564;-55
2021/05/17 06:25:11;;;;;;;1.00;0.73;;;15.40;1.00;;;;;;5109439;28;21017;-55
2021/05/17 06:27:37;;;;;;;0.90;0.90;;;15.60;1.00;;;;;;5109485;28;20590;-56
2021/05/17 06:30:06;;;;;;;1.03;0.70;;;15.60;1.00;;;;;;5109823;28;20432;-55
2021/05/17 06:32:35;;;;;;;1.77;0.57;;;15.50;1.00;;;;;;5109339;28;20445;-55
2021/05/17 06:35:01;;;;;;;0.80;0.70;;;15.60;1.00;;;;;;5091169;28;20481;-55
2021/05/17 06:37:26;;;;;;;0.70;0.63;;;15.40;1.00;;;;;;5088642;28;20450;-55
2021/05/17 06:39:52;;;;;;;0.70;0.60;;;15.50;1.00;;;;;;5089479;28;20223;-55
2021/05/17 06:42:18;;;;;;;1.73;0.80;;;15.50;1.00;;;;;;5089704;28;20498;-54
2021/05/17 06:44:44;;;;;;;1.57;1.00;;;15.40;1.00;;;;;;5089376;28;20581;-55
2021/05/17 06:47:11;;;;;;;0.60;0.60;;;15.50;1.00;;;;;;5089165;28;20520;-54
2021/05/17 06:49:37;;;;;;;1.37;0.63;;;15.60;1.00;;;;;;5089340;28;20797;-56
2021/05/17 06:52:04;;;;;;;5.00;0.70;;;15.90;1.00;;;;;;5089584;28;20436;-55
2021/05/17 06:54:30;;;;;;;0.90;0.70;;;16.20;1.00;;;;;;5088483;28;20440;-55
2021/05/17 06:59:31;;;;;;;0.90;0.70;;;16.50;1.00;;;;;;5088034;28;20199;-55
2021/05/17 07:01:57;;;;;;;2.20;0.70;;;16.30;1.00;;;;;;5089345;28;20419;-55
2021/05/17 07:04:23;;;;;;;2.20;0.87;;;15.90;1.00;;;;;;5089699;28;20456;-54
2021/05/17 07:06:58;;;;;;;1.80;0.80;;;15.70;1.00;;;;;;5089276;28;20460;-55
2021/05/17 07:12:11;;;;;;;1.40;0.70;;;16.20;1.00;;;;;;5085890;28;20820;-54
2021/05/17 07:14:37;;;;;;;2.67;0.90;;;16.10;1.00;;;;;;5088151;28;20494;-55
2021/05/17 07:17:03;;;;;;;1.57;0.50;;;16.20;1.00;;;;;;5084183;28;20445;-55
2021/05/17 07:19:28;;;;;;;1.53;0.80;;;16.40;1.00;;;;;;5086352;28;20450;-56
2021/05/17 07:24:38;;;;;;;0.57;0.50;;;16.00;1.00;;;;;;5088046;28;20528;-53
2021/05/17 07:27:04;;;;;;;2.93;1.00;;;15.80;1.00;;;;;;5088385;28;20468;-53
2021/05/17 07:29:35;;;;;;;0.63;0.63;;;15.80;1.00;;;;;;5088481;28;20182;-54
2021/05/17 07:32:01;;;;;;;1.23;0.80;;;16.00;1.00;;;;;;5089314;28;20206;-55
2021/05/17 07:34:28;;;;;;;0.80;0.60;;;16.50;1.00;;;;;;5088995;28;20524;-56
2021/05/17 07:36:54;;;;;;;0.83;0.60;;;16.80;1.00;;;;;;5089416;28;20676;-54
2021/05/17 07:39:20;;;;;;;1.70;1.03;;;16.90;1.00;;;;;;5089426;28;20448;-53
2021/05/17 07:41:45;;;;;;;1.77;0.80;;;17.20;1.00;;;;;;5089331;28;20809;-54
2021/05/17 07:44:11;;;;;;;0.50;0.50;;;17.70;1.00;;;;;;5089221;28;20210;-55
2021/05/17 07:46:36;;;;;;;0.83;0.70;;;18.20;1.00;;;;;;5091412;28;20829;-56
2021/05/17 07:49:10;;;;;;;1.00;0.83;;;18.10;1.00;;;;;;5091436;28;20581;-53
2021/05/17 07:51:37;;;;;;;3.40;0.77;;;18.20;1.00;;;;;;5092927;28;20170;-54
2021/05/17 07:54:03;;;;;;;0.90;0.60;;;18.50;1.00;;;;;;5086208;28;21019;-53
2021/05/17 07:56:30;;;;;;;0.60;0.60;;;18.40;1.00;;;;;;5087106;28;20790;-55
2021/05/17 07:58:55;;;;;;;0.80;0.70;;;18.10;1.00;;;;;;5092557;28;20935;-55
2021/05/17 08:01:21;;;;;;;2.90;0.83;;;17.80;1.00;;;;;;5092193;28;20452;-54
2021/05/17 08:03:47;;;;;;;0.93;0.80;;;17.70;1.00;;;;;;5092753;28;20191;-55
2021/05/17 08:06:12;;;;;;;1.57;0.53;;;17.90;1.00;;;;;;5092239;28;20202;-54
2021/05/17 08:08:38;;;;;;;3.10;0.80;;;18.30;1.00;;;;;;5089111;28;20171;-55
2021/05/17 08:11:04;;;;;;;1.37;0.80;;;18.50;1.00;;;;;;5088890;28;20188;-55
2021/05/17 08:13:30;;;;;;;1.17;0.80;;;18.70;1.00;;;;;;5081488;28;20544;-55
2021/05/17 08:15:56;;;;;;;1.27;0.70;;;19.10;1.00;;;;;;5092405;28;20430;-55
2021/05/17 08:18:21;;;;;;;1.20;0.80;;;19.10;1.00;;;;;;5092524;28;20217;-54
2021/05/17 08:20:48;;;;;;;1.40;0.70;;;18.90;1.00;;;;;;5092365;28;20535;-55
2021/05/17 08:23:15;;;;;;;1.13;0.70;;;18.60;1.00;;;;;;5091530;28;20166;-55
2021/05/17 08:25:40;;;;;;;1.67;0.80;;;18.60;1.00;;;;;;5092086;28;20445;-55
2021/05/17 08:28:06;;;;;;;4.87;1.30;;;18.70;1.00;;;;;;5090652;28;20458;-55
2021/05/17 08:30:40;;;;;;;3.00;0.70;;;18.70;1.00;;;;;;5092060;28;20540;-55
2021/05/17 08:33:05;;;;;;;1.03;0.60;;;19.10;1.00;;;;;;5092250;28;20265;-54
2021/05/17 08:35:31;;;;;;;1.30;0.73;;;19.20;1.00;;;;;;5090497;28;20536;-54
2021/05/17 08:37:58;;;;;;;2.77;0.87;;;18.80;1.00;;;;;;5086852;28;20598;-56
2021/05/17 08:40:26;;;;;;;2.07;0.70;;;18.70;1.00;;;;;;5091024;28;20486;-55
2021/05/17 08:42:55;;;;;;;1.50;0.60;;;18.60;1.00;;;;;;5091145;28;20441;-54
2021/05/17 08:45:22;;;;;;;1.23;0.73;;;18.50;1.00;;;;;;5091904;28;20535;-54
2021/05/17 08:47:48;;;;;;;2.57;0.67;;;18.40;1.00;;;;;;5089740;28;20883;-53
2021/05/17 08:50:14;;;;;;;1.03;0.73;;;18.10;1.00;;;;;;5075142;28;20533;-56
2021/05/17 08:52:40;;;;;;;1.90;0.87;;;17.80;1.00;;;;;;5090969;28;20216;-54
2021/05/17 08:55:08;;;;;;;2.43;0.93;;;17.90;1.00;;;;;;5091004;28;20490;-55
2021/05/17 08:57:35;;;;;;;1.63;0.93;;;18.20;1.00;;;;;;5091500;28;20543;-55
2021/05/17 09:00:00;;;;;;;1.43;0.87;;;18.50;1.00;;;;;;5092196;28;20437;-53
2021/05/17 09:02:27;;;;;;;1.40;0.80;;;18.70;1.00;;;;;;5082836;28;20958;-53
2021/05/17 09:05:18;;;;;;;1.50;0.80;;;19.00;1.00;;;;;;5086698;28;20460;-55
2021/05/17 09:07:49;;;;;;;0.90;0.60;;;19.20;1.00;;;;;;5090445;28;20471;-54
2021/05/17 09:10:17;;;;;;;1.93;0.87;;;19.20;1.00;;;;;;5092061;28;20431;-54
2021/05/17 09:13:03;;;;;;;1.83;0.80;;;19.60;1.00;;;;;;5091657;28;20437;-54
2021/05/17 09:15:34;;;;;;;2.00;1.00;;;19.70;1.00;;;;;;5091851;28;20439;-54
2021/05/17 09:18:03;;;;;;;1.23;0.70;;;19.80;1.00;;;;;;5086859;28;20442;-55
2021/05/17 09:20:40;;;;;;;2.77;1.10;;;19.70;1.00;;;;;;5071669;28;20430;-55
2021/05/17 09:23:09;;;;;;;1.93;0.97;;;19.50;1.00;;;;;;5088566;28;20526;-55
2021/05/17 09:25:36;;;;;;;2.60;0.90;;;19.40;1.00;;;;;;5091533;28;20521;-55
2021/05/17 09:28:04;;;;;;;1.27;0.70;;;19.40;1.00;;;;;;5091464;28;20478;-54
2021/05/17 09:30:50;;;;;;;3.33;0.93;;;19.20;1.00;;;;;;5091039;28;20842;-55
2021/05/17 09:33:20;;;;;;;2.97;1.33;;;19.10;1.00;;;;;;5091408;28;20464;-54
2021/05/17 09:35:48;;;;;;;3.07;0.63;;;18.80;1.00;;;;;;5089547;28;20961;-54
2021/05/17 09:38:25;;;;;;;1.50;0.57;;;18.40;1.00;;;;;;5091369;28;20539;-53
2021/05/17 09:41:06;;;;;;;3.50;0.97;;;18.50;1.00;;;;;;5089576;28;20479;-55
2021/05/17 09:43:32;;;;;;;2.20;0.70;;;18.80;1.00;;;;;;5080003;28;20514;-55
2021/05/17 09:45:59;;;;;;;0.63;0.60;;;18.90;1.00;;;;;;5080959;28;20436;-54
2021/05/17 09:48:28;;;;;;;3.20;1.00;;;19.20;1.00;;;;;;5091146;28;20437;-54
2021/05/17 09:51:08;;;;;;;1.43;0.80;;;19.30;1.00;;;;;;5091938;28;20525;-54
2021/05/17 09:53:40;;;;;;;2.50;1.43;;;19.60;1.00;;;;;;5070497;28;20969;-55
2021/05/17 09:56:23;;;;;;;1.50;0.87;;;19.60;1.00;;;;;;5074248;28;20877;-54
2021/05/17 09:59:00;;;;;;;1.53;0.73;;;19.70;1.00;;;;;;5073899;28;20901;-53
2021/05/17 10:01:28;;;;;;;0.73;0.73;;;19.40;1.00;;;;;;5070881;28;20768;-54
2021/05/17 10:04:00;;;;;;;1.67;0.60;;;19.70;1.00;;;;;;5070612;28;20429;-55
2021/05/17 10:06:26;;;;;;;0.73;0.60;;;20.00;1.00;;;;;;5084018;28;20506;-54
2021/05/17 10:08:53;;;;;;;1.30;1.20;;;20.10;1.00;;;;;;5090223;28;20438;-54
2021/05/17 10:11:20;;;;;;;0.80;0.80;;;20.30;1.00;;;;;;5091196;28;20445;-53
2021/05/17 10:13:46;;;;;;;2.70;1.07;;;20.50;1.00;;;;;;5088951;28;20433;-54
2021/05/17 10:16:15;;;;;;;3.10;0.90;;;20.60;1.00;;;;;;5088912;28;20431;-55
2021/05/17 10:18:41;;;;;;;2.40;0.90;;;20.60;1.00;;;;;;5070037;28;20443;-56
2021/05/17 10:21:12;;;;;;;1.60;0.83;;;20.60;1.00;;;;;;5069168;28;20425;-56
2021/05/17 10:23:40;;;;;;;1.47;1.00;;;20.50;1.00;;;;;;5070769;28;20455;-56
2021/05/17 10:26:17;;;;;;;1.93;0.67;;;20.20;1.00;;;;;;5070261;28;20440;-54
2021/05/17 10:28:49;;;;;;;1.90;0.90;;;20.30;1.00;;;;;;5076411;28;21003;-54
2021/05/17 10:31:18;;;;;;;1.77;1.00;;;19.90;1.00;;;;;;5090600;28;20437;-54
2021/05/17 10:34:04;;;;;;;2.50;0.90;;;19.70;1.00;;;;;;5089263;28;20436;-56
2021/05/17 10:36:47;;;;;;;1.77;0.90;;;19.60;1.00;;;;;;5088581;28;20868;-56
2021/05/17 10:39:14;;;;;;;1.80;0.90;;;19.70;1.00;;;;;;5090302;28;20900;-56
2021/05/17 10:48:18;;;;;;;1.57;1.43;;;19.40;1.00;;;;;;5090179;28;20860;-56
2021/05/17 10:50:47;;;;;;;2.63;1.00;;;19.50;1.00;;;;;;5090457;28;20732;-56
2021/05/17 10:53:42;;;;;;;1.50;0.60;;;19.80;1.00;;;;;;5090477;28;20440;-55
2021/05/17 10:56:10;;;;;;;1.70;0.93;;;19.80;1.00;;;;;;5090557;28;20437;-54
2021/05/17 11:02:08;;;;;;;2.87;1.00;;;20.10;1.00;;;;;;5090737;28;20403;-55
2021/05/17 11:04:39;;;;;;;0.80;0.60;;;20.70;1.00;;;;;;5090458;28;20472;-56
2021/05/17 11:07:27;;;;;;;1.23;0.50;;;21.00;1.00;;;;;;5092117;28;20523;-55
2021/05/17 11:10:00;;;;;;;1.47;0.80;;;20.60;1.00;;;;;;5072535;28;20540;-56
2021/05/17 11:12:25;;;;;;;1.20;0.90;;;20.80;1.00;;;;;;5079068;28;20407;-55
2021/05/17 11:15:10;;;;;;;1.90;0.80;;;20.90;1.00;;;;;;5081755;28;20817;-57
2021/05/17 11:18:03;;;;;;;1.03;0.70;;;21.00;1.00;;;;;;5090201;28;20682;-55
2021/05/17 11:23:08;;;;;;;3.53;0.93;;;20.80;1.00;;;;;;5075148;28;21026;-55
2021/05/17 11:28:34;;;;;;;1.43;1.10;;;20.90;1.00;;;;;;5090672;28;20790;-55
2021/05/17 11:34:03;;;;;;;2.20;0.97;;;20.70;1.00;;;;;;5081773;28;20436;-56
2021/05/17 11:36:51;;;;;;;0.90;0.80;;;21.10;1.00;;;;;;5110622;28;20442;-57
2021/05/17 11:39:22;;;;;;;1.00;0.70;;;21.70;1.00;;;;;;5113996;27;20462;-56
2021/05/17 11:41:55;;;;;;;1.10;0.80;;;22.00;1.00;;;;;;5102438;28;20430;-57
2021/05/17 11:44:38;;;;;;;1.30;0.87;;;22.40;1.00;;;;;;5102032;28;20400;-56
2021/05/17 11:47:04;;;;;;;2.07;0.70;;;23.10;1.00;;;;;;5114039;28;20820;-56
2021/05/17 11:49:32;;;;;;;1.63;0.80;;;22.90;1.00;;;;;;5101881;28;21567;-55
2021/05/17 11:52:12;;;;;;;1.17;0.83;;;22.60;1.00;;;;;;5110021;28;20613;-54
2021/05/17 11:54:45;;;;;;;1.50;0.80;;;22.20;1.00;;;;;;5106164;28;20473;-56
2021/05/17 11:57:13;;;;;;;1.03;0.80;;;21.90;1.00;;;;;;5112555;28;20828;-56
2021/05/17 11:59:39;;;;;;;2.00;0.97;;;21.90;1.00;;;;;;5101366;28;20447;-54
2021/05/17 12:02:08;;;;;;;1.60;0.87;;;21.60;1.00;;;;;;5108610;28;20437;-55
2021/05/17 12:04:36;;;;;;;1.43;0.70;;;21.10;1.00;;;;;;5112651;28;21044;-54
2021/05/17 12:07:15;;;;;;;1.20;1.03;;;21.30;1.00;;;;;;5110721;28;20482;-54
2021/05/17 12:09:40;;;;;;;3.97;1.57;;;21.30;1.00;;;;;;5094182;28;20519;-57
2021/05/17 12:12:11;;;;;;;1.43;1.23;;;21.30;1.00;;;;;;5112338;28;20519;-55
2021/05/17 12:14:39;;;;;;;5.27;1.33;;;21.10;1.00;;;;;;5112865;28;20183;-57
2021/05/17 12:17:25;;;;;;;1.03;0.87;;;21.10;1.00;;;;;;5112966;28;20756;-54
2021/05/17 12:19:53;;;;;;;1.10;0.80;;;21.00;1.00;;;;;;5094374;28;20450;-55
2021/05/17 12:22:37;;;;;;;2.53;1.20;;;20.80;1.00;;;;;;5097980;28;20494;-55
2021/05/17 12:25:21;;;;;;;2.33;0.97;;;20.50;1.00;;;;;;5110665;27;20419;-55
2021/05/17 12:27:49;;;;;;;1.60;1.00;;;20.20;1.00;;;;;;5112116;28;20559;-56
2021/05/17 12:30:25;;;;;;;0.93;0.73;;;19.90;1.00;;;;;;5097505;28;20437;-56
2021/05/17 12:32:54;;;;;;;1.20;0.90;;;19.70;1.00;;;;;;5093884;28;20432;-55
2021/05/17 12:35:35;;;;;;;2.10;0.80;;;19.60;1.00;;;;;;5093405;28;20443;-54
2021/05/17 12:38:15;;;;;;;2.07;1.23;;;19.50;1.00;;;;;;5110483;28;20443;-55
2021/05/17 12:40:45;;;;;;;2.03;0.77;;;19.50;1.00;;;;;;5110909;28;20422;-55
2021/05/17 12:43:19;;;;;;;1.53;0.80;;;19.50;1.00;;;;;;5100238;28;20448;-55
2021/05/17 12:46:00;;;;;;;1.27;1.10;;;19.60;1.00;;;;;;5092435;28;20527;-57
2021/05/17 12:48:40;;;;;;;2.50;1.03;;;19.60;1.00;;;;;;5111229;28;20432;-56
2021/05/17 12:51:33;;;;;;;1.77;1.10;;;19.10;1.00;;;;;;5110928;28;20432;-55
2021/05/17 12:54:14;;;;;;;0.80;0.70;;;18.50;1.00;;;;;;5091347;28;20422;-54
2021/05/17 12:56:40;;;;;;;1.27;0.80;;;18.20;1.00;;;;;;5091877;28;20439;-55
2021/05/17 12:59:12;;;;;;;1.90;0.67;;;18.10;1.00;;;;;;5092348;28;20444;-56
2021/05/17 13:01:39;;;;;;;0.77;0.60;;;18.30;1.00;;;;;;5075884;28;20456;-57
2021/05/17 13:04:07;;;;;;;1.53;0.80;;;18.40;1.00;;;;;;5111628;28;20442;-54
2021/05/17 13:06:33;;;;;;;0.83;0.60;;;18.50;1.00;;;;;;5111117;28;20953;-56
2021/05/17 13:09:02;;;;;;;1.30;0.67;;;18.60;1.00;;;;;;5112024;28;20436;-54
2021/05/17 13:11:31;;;;;;;2.23;0.90;;;18.80;1.00;;;;;;5093035;28;20435;-55
2021/05/17 13:14:02;;;;;;;1.80;0.60;;;18.90;1.00;;;;;;5111266;28;20435;-58
2021/05/17 13:16:38;;;;;;;2.43;0.90;;;19.20;1.00;;;;;;5111201;28;20438;-55
2021/05/17 13:30:14;;;;;;;2.30;0.80;;;20.90;1.00;;;;;;5106741;28;20440;-55
2021/05/17 13:32:46;;;;;;;1.00;0.90;;;20.80;1.00;;;;;;5106840;28;20511;-56
2021/05/17 13:35:12;;;;;;;1.77;0.90;;;20.80;1.00;;;;;;5107195;28;20463;-53
2021/05/17 13:37:38;;;;;;;2.93;0.73;;;21.00;1.00;;;;;;5110908;28;20959;-54
2021/05/17 13:40:07;;;;;;;0.90;0.70;;;21.30;1.00;;;;;;5111008;28;20422;-55
2021/05/17 13:42:32;;;;;;;1.77;0.60;;;21.40;1.00;;;;;;5110286;28;20522;-54
2021/05/17 13:44:58;;;;;;;1.47;0.60;;;20.90;1.00;;;;;;5110506;28;20584;-54
2021/05/17 13:47:23;;;;;;;3.93;0.73;;;21.00;1.00;;;;;;5110680;28;20190;-53
2021/05/17 13:49:49;;;;;;;2.47;0.73;;;21.00;1.00;;;;;;5110918;28;20178;-55